Cerro Blanco, Chile
Current Conditions -  °F | °C
As of 7:00 AM on Friday 28 Nov 2014 (Local Time) from SCSE Reporting Station
Overcast Overcast  
Wind Chill: 55°   Ceiling: 1500
Heat Index: 55°   Visibility: 6mi
Dew Point: 52°   Wind: 0mph
Humidity: 88%   Direction: NA
Pressure: 29.91"   Gusts: NA
Location:  30.07°S, 71.12°W
Report Text: SCSE 281100Z 00000KT 9999 SCT010 OVC015 13/11 Q1013
Loading
Personal Weather Stations






























Interactive Weather Map New forecast layout! Learn more

10-Day Weather Forecast

Advertisements
Track Severe Weather on mobile